sensor_id;sensor_type;location;lat;lon;timestamp;pressure;altitude;pressure_sealevel;temperature;humidity
13968;BME280;39536;52.198;9.920;2023-05-22T00:00:36;100645.22;;;19.70;100.00
13968;BME280;39536;52.198;9.920;2023-05-22T00:03:03;100654.31;;;19.78;100.00
13968;BME280;39536;52.198;9.920;2023-05-22T00:05:31;100654.72;;;19.85;100.00
13968;BME280;39536;52.198;9.920;2023-05-22T00:07:59;100648.47;;;19.86;100.00
13968;BME280;39536;52.198;9.920;2023-05-22T00:10:25;100643.72;;;19.91;100.00
13968;BME280;39536;52.198;9.920;2023-05-22T00:12:52;100639.28;;;19.92;100.00
13968;BME280;39536;52.198;9.920;2023-05-22T00:15:18;100640.44;;;20.00;100.00
13968;BME280;39536;52.198;9.920;2023-05-22T00:17:45;100639.91;;;19.95;100.00
13968;BME280;39536;52.198;9.920;2023-05-22T00:20:12;100641.91;;;19.92;100.00
13968;BME280;39536;52.198;9.920;2023-05-22T00:22:39;100641.19;;;19.90;100.00
13968;BME280;39536;52.198;9.920;2023-05-22T00:25:07;100639.72;;;19.86;100.00
13968;BME280;39536;52.198;9.920;2023-05-22T00:27:34;100641.94;;;19.79;100.00
13968;BME280;39536;52.198;9.920;2023-05-22T00:30:01;100638.34;;;19.67;100.00
13968;BME280;39536;52.198;9.920;2023-05-22T00:32:28;100631.63;;;19.61;100.00
13968;BME280;39536;52.198;9.920;2023-05-22T00:34:55;100637.25;;;19.57;100.00
13968;BME280;39536;52.198;9.920;2023-05-22T00:37:22;100632.19;;;19.41;100.00
13968;BME280;39536;52.198;9.920;2023-05-22T00:39:51;100623.56;;;19.25;100.00
13968;BME280;39536;52.198;9.920;2023-05-22T00:42:17;100620.19;;;19.10;100.00
13968;BME280;39536;52.198;9.920;2023-05-22T00:44:44;100623.88;;;19.07;100.00
13968;BME280;39536;52.198;9.920;2023-05-22T00:47:12;100616.47;;;19.12;100.00
13968;BME280;39536;52.198;9.920;2023-05-22T00:49:39;100622.28;;;19.05;100.00
13968;BME280;39536;52.198;9.920;2023-05-22T00:52:06;100621.88;;;19.11;100.00
13968;BME280;39536;52.198;9.920;2023-05-22T00:54:33;100620.06;;;19.11;100.00
13968;BME280;39536;52.198;9.920;2023-05-22T00:57:02;100622.63;;;19.13;100.00
13968;BME280;39536;52.198;9.920;2023-05-22T00:59:30;100620.81;;;19.13;100.00
13968;BME280;39536;52.198;9.920;2023-05-22T01:01:57;100621.91;;;19.24;100.00
13968;BME280;39536;52.198;9.920;2023-05-22T01:04:25;100631.63;;;19.23;100.00
13968;BME280;39536;52.198;9.920;2023-05-22T01:06:52;100623.16;;;19.18;100.00
13968;BME280;39536;52.198;9.920;2023-05-22T01:09:19;100625.69;;;19.07;100.00
13968;BME280;39536;52.198;9.920;2023-05-22T01:11:50;100623.84;;;18.95;100.00
13968;BME280;39536;52.198;9.920;2023-05-22T01:14:29;100622.34;;;18.90;100.00
13968;BME280;39536;52.198;9.920;2023-05-22T01:17:03;100614.41;;;18.90;100.00
13968;BME280;39536;52.198;9.920;2023-05-22T01:19:51;100613.69;;;18.88;100.00
13968;BME280;39536;52.198;9.920;2023-05-22T01:22:30;100607.03;;;18.83;100.00
13968;BME280;39536;52.198;9.920;2023-05-22T01:25:12;100614.19;;;18.81;100.00
13968;BME280;39536;52.198;9.920;2023-05-22T01:28:01;100607.16;;;18.67;100.00
13968;BME280;39536;52.198;9.920;2023-05-22T01:30:49;100609.00;;;18.52;100.00
13968;BME280;39536;52.198;9.920;2023-05-22T01:33:20;100604.03;;;18.48;100.00
13968;BME280;39536;52.198;9.920;2023-05-22T01:35:50;100601.84;;;18.40;100.00
13968;BME280;39536;52.198;9.920;2023-05-22T01:38:18;100607.72;;;18.31;100.00
13968;BME280;39536;52.198;9.920;2023-05-22T01:40:45;100597.53;;;18.39;100.00
13968;BME280;39536;52.198;9.920;2023-05-22T01:43:14;100603.47;;;18.42;100.00
13968;BME280;39536;52.198;9.920;2023-05-22T01:45:42;100604.81;;;18.35;100.00
13968;BME280;39536;52.198;9.920;2023-05-22T01:48:08;100595.53;;;18.42;100.00
13968;BME280;39536;52.198;9.920;2023-05-22T01:50:36;100598.44;;;18.52;100.00
13968;BME280;39536;52.198;9.920;2023-05-22T01:53:08;100595.16;;;18.49;100.00
13968;BME280;39536;52.198;9.920;2023-05-22T01:55:42;100594.06;;;18.38;100.00
13968;BME280;39536;52.198;9.920;2023-05-22T01:58:23;100599.34;;;18.24;100.00
13968;BME280;39536;52.198;9.920;2023-05-22T02:00:53;100596.44;;;18.29;100.00
13968;BME280;39536;52.198;9.920;2023-05-22T02:03:26;100591.69;;;18.34;100.00
13968;BME280;39536;52.198;9.920;2023-05-22T02:05:53;100587.91;;;18.38;100.00
13968;BME280;39536;52.198;9.920;2023-05-22T02:08:21;100584.75;;;18.33;100.00
13968;BME280;39536;52.198;9.920;2023-05-22T02:10:49;100581.81;;;18.37;100.00
13968;BME280;39536;52.198;9.920;2023-05-22T02:13:18;100590.84;;;18.48;100.00
13968;BME280;39536;52.198;9.920;2023-05-22T02:15:46;100589.03;;;18.48;100.00
13968;BME280;39536;52.198;9.920;2023-05-22T02:18:14;100594.13;;;18.51;100.00
13968;BME280;39536;52.198;9.920;2023-05-22T02:20:41;100580.59;;;18.56;100.00
13968;BME280;39536;52.198;9.920;2023-05-22T02:23:07;100579.28;;;18.63;100.00
13968;BME280;39536;52.198;9.920;2023-05-22T02:25:35;100577.13;;;18.55;100.00
13968;BME280;39536;52.198;9.920;2023-05-22T02:28:01;100572.44;;;18.46;100.00
13968;BME280;39536;52.198;9.920;2023-05-22T02:30:28;100572.09;;;18.38;100.00
13968;BME280;39536;52.198;9.920;2023-05-22T02:32:54;100564.50;;;18.33;100.00
13968;BME280;39536;52.198;9.920;2023-05-22T02:35:25;100562.88;;;18.31;100.00
13968;BME280;39536;52.198;9.920;2023-05-22T02:37:51;100556.72;;;18.17;100.00
13968;BME280;39536;52.198;9.920;2023-05-22T02:40:18;100553.72;;;18.09;100.00
13968;BME280;39536;52.198;9.920;2023-05-22T02:42:45;100557.03;;;17.98;100.00
13968;BME280;39536;52.198;9.920;2023-05-22T02:45:11;100551.13;;;17.95;100.00
13968;BME280;39536;52.198;9.920;2023-05-22T02:47:38;100555.06;;;17.88;100.00
13968;BME280;39536;52.198;9.920;2023-05-22T02:50:05;100549.72;;;17.89;100.00
13968;BME280;39536;52.198;9.920;2023-05-22T02:52:34;100555.81;;;17.90;100.00
13968;BME280;39536;52.198;9.920;2023-05-22T02:55:01;100552.81;;;17.82;100.00
13968;BME280;39536;52.198;9.920;2023-05-22T02:57:28;100549.69;;;17.75;100.00
13968;BME280;39536;52.198;9.920;2023-05-22T02:59:55;100555.06;;;17.73;100.00
13968;BME280;39536;52.198;9.920;2023-05-22T03:02:24;100557.25;;;17.67;100.00
13968;BME280;39536;52.198;9.920;2023-05-22T03:04:51;100548.75;;;17.62;100.00
13968;BME280;39536;52.198;9.920;2023-05-22T03:07:17;100556.09;;;17.57;100.00
13968;BME280;39536;52.198;9.920;2023-05-22T03:09:45;100548.38;;;17.53;100.00
13968;BME280;39536;52.198;9.920;2023-05-22T03:12:12;100545.28;;;17.47;100.00
13968;BME280;39536;52.198;9.920;2023-05-22T03:14:38;100552.44;;;17.45;100.00
13968;BME280;39536;52.198;9.920;2023-05-22T03:17:05;100557.22;;;17.38;100.00
13968;BME280;39536;52.198;9.920;2023-05-22T03:19:32;100557.13;;;17.40;100.00
13968;BME280;39536;52.198;9.920;2023-05-22T03:21:58;100556.66;;;17.47;100.00
13968;BME280;39536;52.198;9.920;2023-05-22T03:24:25;100554.13;;;17.46;100.00
13968;BME280;39536;52.198;9.920;2023-05-22T03:26:53;100558.72;;;17.57;100.00
13968;BME280;39536;52.198;9.920;2023-05-22T03:29:19;100553.84;;;17.65;100.00
13968;BME280;39536;52.198;9.920;2023-05-22T03:31:46;100551.78;;;17.70;100.00
13968;BME280;39536;52.198;9.920;2023-05-22T03:34:13;100556.28;;;17.68;100.00
13968;BME280;39536;52.198;9.920;2023-05-22T03:36:40;100557.13;;;17.68;100.00
13968;BME280;39536;52.198;9.920;2023-05-22T03:39:07;100555.25;;;17.70;100.00
13968;BME280;39536;52.198;9.920;2023-05-22T03:41:34;100550.00;;;17.70;100.00
13968;BME280;39536;52.198;9.920;2023-05-22T03:44:02;100551.59;;;17.73;100.00
13968;BME280;39536;52.198;9.920;2023-05-22T03:46:29;100550.19;;;17.82;100.00
13968;BME280;39536;52.198;9.920;2023-05-22T03:48:55;100549.59;;;17.91;100.00
13968;BME280;39536;52.198;9.920;2023-05-22T03:51:22;100553.19;;;17.90;100.00
13968;BME280;39536;52.198;9.920;2023-05-22T03:53:49;100545.22;;;17.91;100.00
13968;BME280;39536;52.198;9.920;2023-05-22T03:56:15;100550.47;;;17.91;100.00
13968;BME280;39536;52.198;9.920;2023-05-22T03:58:42;100548.88;;;17.89;100.00
13968;BME280;39536;52.198;9.920;2023-05-22T04:01:10;100550.94;;;17.98;100.00
13968;BME280;39536;52.198;9.920;2023-05-22T04:03:38;100550.63;;;18.03;100.00
13968;BME280;39536;52.198;9.920;2023-05-22T04:06:05;100552.13;;;18.07;100.00
13968;BME280;39536;52.198;9.920;2023-05-22T04:08:31;100555.97;;;18.15;100.00
13968;BME280;39536;52.198;9.920;2023-05-22T04:10:58;100559.91;;;18.22;100.00
13968;BME280;39536;52.198;9.920;2023-05-22T04:13:26;100561.22;;;18.30;100.00
13968;BME280;39536;52.198;9.920;2023-05-22T04:15:52;100556.78;;;18.30;100.00
13968;BME280;39536;52.198;9.920;2023-05-22T04:18:22;100566.81;;;18.38;100.00
13968;BME280;39536;52.198;9.920;2023-05-22T04:20:48;100559.41;;;18.30;100.00
13968;BME280;39536;52.198;9.920;2023-05-22T04:23:16;100558.81;;;18.39;100.00
13968;BME280;39536;52.198;9.920;2023-05-22T04:25:42;100555.66;;;18.47;100.00
13968;BME280;39536;52.198;9.920;2023-05-22T04:28:12;100556.94;;;18.41;100.00
13968;BME280;39536;52.198;9.920;2023-05-22T04:30:38;100556.53;;;18.48;100.00
13968;BME280;39536;52.198;9.920;2023-05-22T04:33:05;100561.25;;;18.42;100.00
13968;BME280;39536;52.198;9.920;2023-05-22T04:35:33;100559.19;;;18.48;100.00
13968;BME280;39536;52.198;9.920;2023-05-22T04:38:00;100555.59;;;18.49;100.00
13968;BME280;39536;52.198;9.920;2023-05-22T04:40:28;100565.41;;;18.59;100.00
13968;BME280;39536;52.198;9.920;2023-05-22T04:42:57;100563.22;;;18.66;100.00
13968;BME280;39536;52.198;9.920;2023-05-22T04:45:25;100568.78;;;18.76;100.00
13968;BME280;39536;52.198;9.920;2023-05-22T04:47:53;100570.06;;;18.83;100.00
13968;BME280;39536;52.198;9.920;2023-05-22T04:50:20;100571.75;;;18.84;100.00
13968;BME280;39536;52.198;9.920;2023-05-22T04:52:48;100571.75;;;18.84;100.00
13968;BME280;39536;52.198;9.920;2023-05-22T04:55:15;100571.13;;;18.93;100.00
13968;BME280;39536;52.198;9.920;2023-05-22T04:57:43;100565.53;;;18.85;100.00
13968;BME280;39536;52.198;9.920;2023-05-22T05:00:11;100563.53;;;18.88;100.00
13968;BME280;39536;52.198;9.920;2023-05-22T05:02:38;100559.75;;;18.92;100.00
13968;BME280;39536;52.198;9.920;2023-05-22T05:05:05;100555.94;;;18.97;100.00
13968;BME280;39536;52.198;9.920;2023-05-22T05:07:35;100558.16;;;19.03;100.00
13968;BME280;39536;52.198;9.920;2023-05-22T05:10:04;100551.84;;;19.05;100.00
13968;BME280;39536;52.198;9.920;2023-05-22T05:12:31;100546.47;;;19.07;100.00
13968;BME280;39536;52.198;9.920;2023-05-22T05:14:58;100544.97;;;19.03;100.00
13968;BME280;39536;52.198;9.920;2023-05-22T05:17:24;100540.00;;;18.98;100.00
13968;BME280;39536;52.198;9.920;2023-05-22T05:19:51;100534.53;;;19.01;100.00
13968;BME280;39536;52.198;9.920;2023-05-22T05:22:18;100540.31;;;18.93;100.00
13968;BME280;39536;52.198;9.920;2023-05-22T05:24:44;100542.00;;;18.95;100.00
13968;BME280;39536;52.198;9.920;2023-05-22T05:27:12;100533.53;;;18.89;100.00
13968;BME280;39536;52.198;9.920;2023-05-22T05:29:39;100536.31;;;18.88;100.00
13968;BME280;39536;52.198;9.920;2023-05-22T05:32:06;100542.00;;;18.95;100.00
13968;BME280;39536;52.198;9.920;2023-05-22T05:34:34;100543.47;;;18.86;100.00
13968;BME280;39536;52.198;9.920;2023-05-22T05:37:01;100542.31;;;18.90;100.00
13968;BME280;39536;52.198;9.920;2023-05-22T05:39:28;100544.84;;;18.91;100.00
13968;BME280;39536;52.198;9.920;2023-05-22T05:41:54;100541.59;;;19.01;100.00
13968;BME280;39536;52.198;9.920;2023-05-22T05:44:22;100539.59;;;19.04;100.00
13968;BME280;39536;52.198;9.920;2023-05-22T05:46:49;100544.03;;;19.17;100.00
13968;BME280;39536;52.198;9.920;2023-05-22T05:49:17;100545.84;;;19.16;100.00
13968;BME280;39536;52.198;9.920;2023-05-22T05:51:44;100544.53;;;19.22;100.00
13968;BME280;39536;52.198;9.920;2023-05-22T05:54:11;100546.47;;;19.32;100.00
13968;BME280;39536;52.198;9.920;2023-05-22T05:56:37;100551.84;;;19.44;100.00
13968;BME280;39536;52.198;9.920;2023-05-22T05:59:04;100545.00;;;19.41;100.00
13968;BME280;39536;52.198;9.920;2023-05-22T06:01:33;100550.25;;;19.54;100.00
13968;BME280;39536;52.198;9.920;2023-05-22T06:03:59;100547.28;;;19.58;100.00
13968;BME280;39536;52.198;9.920;2023-05-22T06:06:29;100553.84;;;19.53;100.00
13968;BME280;39536;52.198;9.920;2023-05-22T06:09:00;100551.94;;;19.55;100.00
13968;BME280;39536;52.198;9.920;2023-05-22T06:11:27;100552.47;;;19.60;100.00
13968;BME280;39536;52.198;9.920;2023-05-22T06:13:53;100549.31;;;19.68;100.00
13968;BME280;39536;52.198;9.920;2023-05-22T06:16:20;100550.78;;;19.84;100.00
13968;BME280;39536;52.198;9.920;2023-05-22T06:18:48;100544.41;;;19.87;100.00
13968;BME280;39536;52.198;9.920;2023-05-22T06:21:16;100547.88;;;20.00;100.00
13968;BME280;39536;52.198;9.920;2023-05-22T06:23:45;100546.66;;;20.17;100.00
13968;BME280;39536;52.198;9.920;2023-05-22T06:26:12;100552.50;;;20.10;100.00
13968;BME280;39536;52.198;9.920;2023-05-22T06:28:39;100550.25;;;20.16;100.00
13968;BME280;39536;52.198;9.920;2023-05-22T06:31:05;100545.41;;;20.10;100.00
13968;BME280;39536;52.198;9.920;2023-05-22T06:33:33;100545.53;;;20.33;100.00
13968;BME280;39536;52.198;9.920;2023-05-22T06:36:02;100545.16;;;20.50;100.00
13968;BME280;39536;52.198;9.920;2023-05-22T06:38:29;100548.69;;;20.62;100.00
13968;BME280;39536;52.198;9.920;2023-05-22T06:40:56;100544.38;;;20.61;100.00
13968;BME280;39536;52.198;9.920;2023-05-22T06:43:23;100550.09;;;20.79;100.00
13968;BME280;39536;52.198;9.920;2023-05-22T06:45:50;100554.00;;;20.97;100.00
13968;BME280;39536;52.198;9.920;2023-05-22T06:48:16;100552.44;;;21.06;100.00
13968;BME280;39536;52.198;9.920;2023-05-22T06:50:43;100551.28;;;21.10;100.00
13968;BME280;39536;52.198;9.920;2023-05-22T06:53:11;100546.69;;;21.12;100.00
13968;BME280;39536;52.198;9.920;2023-05-22T06:55:38;100556.94;;;21.16;100.00
13968;BME280;39536;52.198;9.920;2023-05-22T06:58:04;100550.69;;;21.29;100.00
13968;BME280;39536;52.198;9.920;2023-05-22T07:00:31;100559.97;;;21.34;100.00
13968;BME280;39536;52.198;9.920;2023-05-22T07:02:57;100561.97;;;21.43;100.00
13968;BME280;39536;52.198;9.920;2023-05-22T07:05:24;100560.75;;;21.59;100.00
13968;BME280;39536;52.198;9.920;2023-05-22T07:07:51;100558.69;;;21.74;100.00
13968;BME280;39536;52.198;9.920;2023-05-22T07:10:19;100556.63;;;21.88;100.00
13968;BME280;39536;52.198;9.920;2023-05-22T07:12:45;100561.56;;;21.93;100.00
13968;BME280;39536;52.198;9.920;2023-05-22T07:15:12;100552.41;;;21.97;100.00
13968;BME280;39536;52.198;9.920;2023-05-22T07:17:38;100550.34;;;22.01;100.00
13968;BME280;39536;52.198;9.920;2023-05-22T07:20:07;100550.22;;;22.02;100.00
13968;BME280;39536;52.198;9.920;2023-05-22T07:22:34;100551.41;;;22.09;100.00
13968;BME280;39536;52.198;9.920;2023-05-22T07:25:00;100554.78;;;22.23;100.00
13968;BME280;39536;52.198;9.920;2023-05-22T07:27:28;100555.13;;;22.29;100.00
13968;BME280;39536;52.198;9.920;2023-05-22T07:29:55;100558.09;;;22.47;100.00
13968;BME280;39536;52.198;9.920;2023-05-22T07:32:21;100550.78;;;22.60;100.00
13968;BME280;39536;52.198;9.920;2023-05-22T07:34:48;100554.03;;;22.64;100.00
13968;BME280;39536;52.198;9.920;2023-05-22T07:37:15;100546.50;;;22.80;100.00
13968;BME280;39536;52.198;9.920;2023-05-22T07:39:42;100546.19;;;22.95;100.00
13968;BME280;39536;52.198;9.920;2023-05-22T07:42:10;100545.34;;;23.15;100.00
13968;BME280;39536;52.198;9.920;2023-05-22T07:44:40;100554.94;;;23.27;100.00
13968;BME280;39536;52.198;9.920;2023-05-22T07:47:07;100549.63;;;23.27;100.00
13968;BME280;39536;52.198;9.920;2023-05-22T07:49:34;100552.13;;;23.29;100.00
13968;BME280;39536;52.198;9.920;2023-05-22T07:52:00;100545.56;;;23.33;100.00
13968;BME280;39536;52.198;9.920;2023-05-22T07:54:27;100544.69;;;23.23;100.00
13968;BME280;39536;52.198;9.920;2023-05-22T07:56:54;100539.59;;;23.10;100.00
13968;BME280;39536;52.198;9.920;2023-05-22T07:59:21;100539.72;;;23.09;100.00
13968;BME280;39536;52.198;9.920;2023-05-22T08:01:50;100539.94;;;23.26;100.00
13968;BME280;39536;52.198;9.920;2023-05-22T08:04:17;100546.75;;;23.40;100.00
13968;BME280;39536;52.198;9.920;2023-05-22T08:06:44;100546.00;;;23.59;100.00
13968;BME280;39536;52.198;9.920;2023-05-22T08:09:10;100550.97;;;23.73;100.00
13968;BME280;39536;52.198;9.920;2023-05-22T08:11:37;100547.75;;;23.80;100.00
13968;BME280;39536;52.198;9.920;2023-05-22T08:14:06;100552.44;;;23.97;100.00
13968;BME280;39536;52.198;9.920;2023-05-22T08:16:33;100546.19;;;24.17;100.00
13968;BME280;39536;52.198;9.920;2023-05-22T08:19:01;100544.09;;;24.31;100.00
13968;BME280;39536;52.198;9.920;2023-05-22T08:21:27;100545.94;;;24.30;100.00
13968;BME280;39536;52.198;9.920;2023-05-22T08:23:54;100549.16;;;24.34;100.00
13968;BME280;39536;52.198;9.920;2023-05-22T08:26:20;100539.63;;;24.41;100.00
13968;BME280;39536;52.198;9.920;2023-05-22T08:28:47;100543.13;;;24.32;100.00
13968;BME280;39536;52.198;9.920;2023-05-22T08:31:14;100535.41;;;24.29;100.00
13968;BME280;39536;52.198;9.920;2023-05-22T08:33:40;100533.84;;;24.36;100.00
13968;BME280;39536;52.198;9.920;2023-05-22T08:36:08;100532.19;;;24.35;100.00
13968;BME280;39536;52.198;9.920;2023-05-22T08:38:35;100537.56;;;24.45;100.00
13968;BME280;39536;52.198;9.920;2023-05-22T08:41:03;100523.56;;;24.52;100.00
13968;BME280;39536;52.198;9.920;2023-05-22T08:43:31;100522.16;;;24.68;100.00
13968;BME280;39536;52.198;9.920;2023-05-22T08:45:59;100518.91;;;24.54;100.00
13968;BME280;39536;52.198;9.920;2023-05-22T08:48:29;100517.59;;;24.39;100.00
13968;BME280;39536;52.198;9.920;2023-05-22T08:50:58;100524.63;;;24.30;100.00
13968;BME280;39536;52.198;9.920;2023-05-22T08:53:32;100516.66;;;24.40;100.00
13968;BME280;39536;52.198;9.920;2023-05-22T08:56:01;100521.25;;;24.38;100.00
13968;BME280;39536;52.198;9.920;2023-05-22T08:58:28;100514.13;;;24.48;100.00
13968;BME280;39536;52.198;9.920;2023-05-22T09:00:54;100511.63;;;24.47;100.00
13968;BME280;39536;52.198;9.920;2023-05-22T09:03:21;100513.47;;;24.46;100.00
13968;BME280;39536;52.198;9.920;2023-05-22T09:05:48;100508.97;;;24.47;100.00
13968;BME280;39536;52.198;9.920;2023-05-22T09:08:16;100510.50;;;24.59;100.00
13968;BME280;39536;52.198;9.920;2023-05-22T09:10:45;100515.81;;;24.78;100.00
13968;BME280;39536;52.198;9.920;2023-05-22T09:13:22;100508.19;;;25.03;100.00
13968;BME280;39536;52.198;9.920;2023-05-22T09:15:49;100500.56;;;25.27;100.00
13968;BME280;39536;52.198;9.920;2023-05-22T09:18:15;100510.09;;;25.57;100.00
13968;BME280;39536;52.198;9.920;2023-05-22T09:20:42;100505.13;;;25.72;100.00
13968;BME280;39536;52.198;9.920;2023-05-22T09:23:12;100510.06;;;25.95;100.00
13968;BME280;39536;52.198;9.920;2023-05-22T09:25:42;100505.53;;;26.05;100.00
13968;BME280;39536;52.198;9.920;2023-05-22T09:28:11;100502.41;;;26.10;100.00
13968;BME280;39536;52.198;9.920;2023-05-22T09:30:38;100499.66;;;26.19;100.00
13968;BME280;39536;52.198;9.920;2023-05-22T09:33:07;100495.19;;;26.56;100.00
13968;BME280;39536;52.198;9.920;2023-05-22T09:35:34;100490.22;;;26.61;100.00
13968;BME280;39536;52.198;9.920;2023-05-22T09:38:03;100493.53;;;26.81;100.00
13968;BME280;39536;52.198;9.920;2023-05-22T09:40:32;100493.81;;;27.04;100.00
13968;BME280;39536;52.198;9.920;2023-05-22T09:43:00;100491.47;;;27.01;100.00
13968;BME280;39536;52.198;9.920;2023-05-22T09:45:28;100486.94;;;26.93;100.00
13968;BME280;39536;52.198;9.920;2023-05-22T09:47:54;100489.53;;;26.85;100.00
13968;BME280;39536;52.198;9.920;2023-05-22T09:50:22;100482.47;;;27.02;100.00
13968;BME280;39536;52.198;9.920;2023-05-22T09:52:49;100493.22;;;26.84;100.00
13968;BME280;39536;52.198;9.920;2023-05-22T09:55:19;100489.28;;;26.96;100.00
13968;BME280;39536;52.198;9.920;2023-05-22T09:57:50;100494.16;;;27.01;100.00
13968;BME280;39536;52.198;9.920;2023-05-22T10:00:17;100490.59;;;26.92;100.00
13968;BME280;39536;52.198;9.920;2023-05-22T10:02:46;100489.06;;;26.89;100.00
13968;BME280;39536;52.198;9.920;2023-05-22T10:05:14;100491.78;;;26.98;100.00
13968;BME280;39536;52.198;9.920;2023-05-22T10:07:47;100487.31;;;26.98;100.00
13968;BME280;39536;52.198;9.920;2023-05-22T10:10:17;100488.78;;;27.01;100.00
13968;BME280;39536;52.198;9.920;2023-05-22T10:12:46;100489.50;;;27.03;100.00
13968;BME280;39536;52.198;9.920;2023-05-22T10:15:14;100486.13;;;27.01;100.00
13968;BME280;39536;52.198;9.920;2023-05-22T10:17:43;100480.63;;;27.02;100.00
13968;BME280;39536;52.198;9.920;2023-05-22T10:20:11;100483.19;;;27.12;100.00
13968;BME280;39536;52.198;9.920;2023-05-22T10:22:38;100486.19;;;27.09;100.00
13968;BME280;39536;52.198;9.920;2023-05-22T10:25:06;100479.22;;;26.90;100.00
13968;BME280;39536;52.198;9.920;2023-05-22T10:27:33;100473.88;;;26.90;100.00
13968;BME280;39536;52.198;9.920;2023-05-22T10:30:07;100476.06;;;26.94;100.00
13968;BME280;39536;52.198;9.920;2023-05-22T10:32:40;100468.81;;;27.13;100.00
13968;BME280;39536;52.198;9.920;2023-05-22T10:35:17;100474.16;;;27.39;100.00
13968;BME280;39536;52.198;9.920;2023-05-22T10:37:48;100462.69;;;27.55;99.36
13968;BME280;39536;52.198;9.920;2023-05-22T10:40:20;100463.88;;;27.60;100.00
13968;BME280;39536;52.198;9.920;2023-05-22T10:42:55;100456.69;;;27.69;97.77
13968;BME280;39536;52.198;9.920;2023-05-22T10:45:24;100451.88;;;27.73;96.02
13968;BME280;39536;52.198;9.920;2023-05-22T10:48:00;100456.13;;;27.92;95.12
13968;BME280;39536;52.198;9.920;2023-05-22T10:50:29;100454.16;;;28.10;94.11
13968;BME280;39536;52.198;9.920;2023-05-22T10:53:21;100445.59;;;28.31;91.39
13968;BME280;39536;52.198;9.920;2023-05-22T10:55:48;100452.66;;;28.65;90.31
13968;BME280;39536;52.198;9.920;2023-05-22T10:58:15;100446.59;;;28.63;90.77
13968;BME280;39536;52.198;9.920;2023-05-22T11:00:42;100453.16;;;28.52;90.05
13968;BME280;39536;52.198;9.920;2023-05-22T11:03:09;100444.41;;;28.74;86.60
13968;BME280;39536;52.198;9.920;2023-05-22T11:05:37;100447.25;;;28.89;90.04
13968;BME280;39536;52.198;9.920;2023-05-22T11:08:09;100452.25;;;29.09;87.60
13968;BME280;39536;52.198;9.920;2023-05-22T11:10:52;100454.03;;;29.24;89.22
13968;BME280;39536;52.198;9.920;2023-05-22T11:13:18;100450.78;;;29.37;85.70
13968;BME280;39536;52.198;9.920;2023-05-22T11:15:46;100454.34;;;29.38;85.94
13968;BME280;39536;52.198;9.920;2023-05-22T11:18:13;100451.03;;;29.59;85.56
13968;BME280;39536;52.198;9.920;2023-05-22T11:20:42;100440.81;;;29.54;83.94
13968;BME280;39536;52.198;9.920;2023-05-22T11:23:09;100436.81;;;29.81;84.50
13968;BME280;39536;52.198;9.920;2023-05-22T11:25:37;100440.88;;;29.77;88.86
13968;BME280;39536;52.198;9.920;2023-05-22T11:28:06;100438.69;;;29.81;84.86
13968;BME280;39536;52.198;9.920;2023-05-22T11:30:34;100437.91;;;29.95;82.43
13968;BME280;39536;52.198;9.920;2023-05-22T11:33:02;100440.59;;;29.95;80.42
13968;BME280;39536;52.198;9.920;2023-05-22T11:35:28;100433.59;;;29.55;79.75
13968;BME280;39536;52.198;9.920;2023-05-22T11:37:56;100428.72;;;29.66;80.44
13968;BME280;39536;52.198;9.920;2023-05-22T11:40:25;100430.69;;;29.73;83.50
13968;BME280;39536;52.198;9.920;2023-05-22T11:42:54;100431.41;;;29.66;82.96
13968;BME280;39536;52.198;9.920;2023-05-22T11:45:20;100429.38;;;29.91;84.61
13968;BME280;39536;52.198;9.920;2023-05-22T11:47:47;100426.75;;;30.06;82.19
13968;BME280;39536;52.198;9.920;2023-05-22T11:50:13;100430.66;;;30.27;79.04
13968;BME280;39536;52.198;9.920;2023-05-22T11:52:41;100420.94;;;30.26;79.35
13968;BME280;39536;52.198;9.920;2023-05-22T11:55:09;100420.13;;;30.17;78.99
13968;BME280;39536;52.198;9.920;2023-05-22T11:57:36;100415.94;;;30.14;77.19
13968;BME280;39536;52.198;9.920;2023-05-22T12:00:04;100405.84;;;30.17;79.68
13968;BME280;39536;52.198;9.920;2023-05-22T12:02:32;100402.97;;;30.18;77.99
13968;BME280;39536;52.198;9.920;2023-05-22T12:04:59;100408.19;;;29.97;79.49
13968;BME280;39536;52.198;9.920;2023-05-22T12:07:26;100404.06;;;30.09;82.09
13968;BME280;39536;52.198;9.920;2023-05-22T12:09:55;100403.31;;;30.15;80.43
13968;BME280;39536;52.198;9.920;2023-05-22T12:12:23;100403.59;;;30.28;79.22
13968;BME280;39536;52.198;9.920;2023-05-22T12:14:51;100403.53;;;30.51;79.18
13968;BME280;39536;52.198;9.920;2023-05-22T12:17:18;100401.41;;;30.61;75.71
13968;BME280;39536;52.198;9.920;2023-05-22T12:19:46;100402.63;;;30.74;78.89
13968;BME280;39536;52.198;9.920;2023-05-22T12:22:13;100395.59;;;30.73;74.83
13968;BME280;39536;52.198;9.920;2023-05-22T12:24:40;100394.41;;;30.90;76.87
13968;BME280;39536;52.198;9.920;2023-05-22T12:27:10;100389.38;;;30.87;72.94
13968;BME280;39536;52.198;9.920;2023-05-22T12:29:39;100395.72;;;30.79;71.16
13968;BME280;39536;52.198;9.920;2023-05-22T12:32:07;100394.50;;;30.82;70.91
13968;BME280;39536;52.198;9.920;2023-05-22T12:34:41;100387.59;;;30.65;73.97
13968;BME280;39536;52.198;9.920;2023-05-22T12:37:17;100385.28;;;30.61;74.65
13968;BME280;39536;52.198;9.920;2023-05-22T12:39:52;100383.72;;;30.67;79.06
13968;BME280;39536;52.198;9.920;2023-05-22T12:42:19;100381.84;;;30.68;76.82
13968;BME280;39536;52.198;9.920;2023-05-22T12:44:47;100380.75;;;30.77;73.31